Time;durP1;ratioP1;P1;durP2;ratioP2;P2;SDS_P1;SDS_P2;PMS_P1;PMS_P2;Temp;Humidity;BMP_temperature;BMP_pressure;BME280_temperature;BME280_humidity;BME280_pressure;Samples;Min_cycle;Max_cycle;Signal;HPM_P1;HPM_P2
2023/01/24 00:00:40;;;;;;;;;;;3.60;99.90;;;;;;5027031;28;19920;-74
2023/01/24 00:03:11;;;;;;;;;;;3.70;99.90;;;;;;5016216;28;20004;-73
2023/01/24 00:05:37;;;;;;;;;;;3.60;99.90;;;;;;5018994;28;20422;-71
2023/01/24 00:08:02;;;;;;;;;;;3.60;99.90;;;;;;5017430;28;19996;-73
2023/01/24 00:10:29;;;;;;;;;;;3.60;99.90;;;;;;5013181;28;19914;-73
2023/01/24 00:12:54;;;;;;;;;;;3.60;99.90;;;;;;5013244;28;19913;-73
2023/01/24 00:15:20;;;;;;;;;;;3.60;99.90;;;;;;5023802;28;19913;-71
2023/01/24 00:17:45;;;;;;;;;;;3.60;99.90;;;;;;5008064;28;20327;-74
2023/01/24 00:20:11;;;;;;;;;;;3.60;99.90;;;;;;5007049;28;19909;-73
2023/01/24 00:22:36;;;;;;;;;;;3.60;99.90;;;;;;5012668;28;20445;-74
2023/01/24 00:25:02;;;;;;;;;;;3.60;99.90;;;;;;5011199;28;20606;-72
2023/01/24 00:27:31;;;;;;;;;;;3.60;99.90;;;;;;5009357;28;20381;-73
2023/01/24 00:29:57;;;;;;;;;;;3.60;99.90;;;;;;5010898;28;19910;-71
2023/01/24 00:32:22;;;;;;;;;;;3.50;99.90;;;;;;5010016;28;19951;-72
2023/01/24 00:34:47;;;;;;;;;;;3.60;99.90;;;;;;5007239;28;20338;-75
2023/01/24 00:37:13;;;;;;;;;;;3.60;99.90;;;;;;5005763;28;19914;-75
2023/01/24 00:39:38;;;;;;;;;;;3.60;99.90;;;;;;5010704;28;20618;-73
2023/01/24 00:42:04;;;;;;;;;;;3.60;99.90;;;;;;5010095;28;19920;-72
2023/01/24 00:44:29;;;;;;;;;;;3.50;99.90;;;;;;5007139;28;19910;-72
2023/01/24 00:46:55;;;;;;;;;;;3.50;99.90;;;;;;5011667;28;19923;-74
2023/01/24 00:49:20;;;;;;;;;;;3.50;99.90;;;;;;5008698;28;19957;-74
2023/01/24 00:51:46;;;;;;;;;;;3.50;99.90;;;;;;5007970;28;19909;-73
2023/01/24 00:54:11;;;;;;;;;;;3.50;99.90;;;;;;5013019;28;19910;-71
2023/01/24 00:56:37;;;;;;;;;;;3.50;99.90;;;;;;5015220;28;19948;-72
2023/01/24 00:59:02;;;;;;;;;;;3.50;99.90;;;;;;5012963;28;20608;-72
2023/01/24 01:01:28;;;;;;;;;;;3.40;99.90;;;;;;5007824;28;19913;-72
2023/01/24 01:03:54;;;;;;;;;;;3.40;99.90;;;;;;5011358;28;19924;-73
2023/01/24 01:06:19;;;;;;;;;;;3.50;99.90;;;;;;5005395;28;19936;-73
2023/01/24 01:08:45;;;;;;;;;;;3.50;99.90;;;;;;5009803;28;19913;-75
2023/01/24 01:11:10;;;;;;;;;;;3.60;99.90;;;;;;5017510;28;19909;-73
2023/01/24 01:13:36;;;;;;;;;;;3.50;99.90;;;;;;5012612;28;19913;-71
2023/01/24 01:16:09;;;;;;;;;;;3.60;99.90;;;;;;5016081;28;20000;-72
2023/01/24 01:18:34;;;;;;;;;;;3.50;99.90;;;;;;5010593;28;19961;-73
2023/01/24 01:21:00;;;;;;;;;;;3.40;99.90;;;;;;5011063;28;19953;-74
2023/01/24 01:23:26;;;;;;;;;;;3.40;99.90;;;;;;5005615;28;20012;-73
2023/01/24 01:25:51;;;;;;;;;;;3.40;99.90;;;;;;5015720;28;19909;-71
2023/01/24 01:28:17;;;;;;;;;;;3.50;99.90;;;;;;5012774;28;20371;-72
2023/01/24 01:30:42;;;;;;;;;;;3.50;99.90;;;;;;5015719;28;19910;-74
2023/01/24 01:33:08;;;;;;;;;;;3.50;99.90;;;;;;5006833;28;20483;-73
2023/01/24 01:35:33;;;;;;;;;;;3.50;99.90;;;;;;5005777;28;19914;-75
2023/01/24 01:37:59;;;;;;;;;;;3.50;99.90;;;;;;5009782;28;19913;-71
2023/01/24 01:40:24;;;;;;;;;;;3.40;99.90;;;;;;5005338;28;19936;-71
2023/01/24 01:42:51;;;;;;;;;;;3.40;99.90;;;;;;5014254;28;19921;-73
2023/01/24 01:45:49;;;;;;;;;;;3.40;99.90;;;;;;5024267;28;19916;-73
2023/01/24 01:48:23;;;;;;;;;;;3.40;99.90;;;;;;4988783;28;19939;-75
2023/01/24 01:50:52;;;;;;;;;;;3.40;99.90;;;;;;5026766;28;19952;-72
2023/01/24 01:53:18;;;;;;;;;;;3.40;99.90;;;;;;5021210;28;19914;-74
2023/01/24 01:55:48;;;;;;;;;;;3.40;99.90;;;;;;5007941;28;20061;-73
2023/01/24 01:58:15;;;;;;;;;;;3.40;99.90;;;;;;5010983;28;19916;-73
2023/01/24 02:00:49;;;;;;;;;;;3.30;99.90;;;;;;5008386;28;20322;-73
2023/01/24 02:06:00;;;;;;;;;;;3.40;99.90;;;;;;5005594;28;19924;-75
2023/01/24 02:08:26;;;;;;;;;;;3.40;99.90;;;;;;5013407;28;19921;-73
2023/01/24 02:13:43;;;;;;;;;;;3.30;99.90;;;;;;5006067;28;20105;-71
2023/01/24 02:16:12;;;;;;;;;;;3.30;99.90;;;;;;5006627;28;20546;-74
2023/01/24 02:18:39;;;;;;;;;;;3.30;99.90;;;;;;5005948;28;19953;-73
2023/01/24 02:21:09;;;;;;;;;;;3.30;99.90;;;;;;5008918;28;19925;-73
2023/01/24 02:23:47;;;;;;;;;;;3.30;99.90;;;;;;5018485;28;20264;-72
2023/01/24 02:26:14;;;;;;;;;;;3.30;99.90;;;;;;5020045;28;19913;-73
2023/01/24 02:28:45;;;;;;;;;;;3.30;99.90;;;;;;5016614;28;19958;-74
2023/01/24 02:31:10;;;;;;;;;;;3.30;99.90;;;;;;5017559;28;20017;-72
2023/01/24 02:33:36;;;;;;;;;;;3.30;99.90;;;;;;5013297;28;20029;-73
2023/01/24 02:36:13;;;;;;;;;;;3.30;99.90;;;;;;5024011;28;19917;-72
2023/01/24 02:38:40;;;;;;;;;;;3.40;99.90;;;;;;5009715;28;19937;-75
2023/01/24 02:41:08;;;;;;;;;;;3.40;99.90;;;;;;5012501;28;19921;-74
2023/01/24 02:43:36;;;;;;;;;;;3.20;99.90;;;;;;5009500;28;20511;-73
2023/01/24 02:46:01;;;;;;;;;;;3.20;99.90;;;;;;5014407;28;19955;-72
2023/01/24 02:48:27;;;;;;;;;;;3.20;99.90;;;;;;5014163;28;19914;-74
2023/01/24 02:53:36;;;;;;;;;;;3.30;99.90;;;;;;5014303;28;19960;-73
2023/01/24 02:58:50;;;;;;;;;;;3.30;99.90;;;;;;5007816;28;20417;-72
2023/01/24 03:01:16;;;;;;;;;;;3.30;99.90;;;;;;5004137;28;19913;-75
2023/01/24 03:03:42;;;;;;;;;;;3.40;99.90;;;;;;5009262;28;19913;-74
2023/01/24 03:06:08;;;;;;;;;;;3.30;99.90;;;;;;5010611;28;19967;-73
2023/01/24 03:08:34;;;;;;;;;;;3.20;99.90;;;;;;5002181;28;19941;-76
2023/01/24 03:11:00;;;;;;;;;;;3.20;99.90;;;;;;5004307;28;20012;-72
2023/01/24 03:35:20;;;;;;;;;;;3.30;99.90;;;;;;5000540;28;19917;-73
2023/01/24 03:40:29;;;;;;;;;;;3.10;99.90;;;;;;5018504;28;20027;-73
2023/01/24 03:42:55;;;;;;;;;;;3.10;99.90;;;;;;5020720;28;20414;-74
2023/01/24 03:45:28;;;;;;;;;;;3.10;99.90;;;;;;5006462;28;19913;-72
2023/01/24 03:47:55;;;;;;;;;;;3.10;99.90;;;;;;5014278;28;19957;-71
2023/01/24 03:53:06;;;;;;;;;;;3.10;99.90;;;;;;5007221;28;20381;-72
2023/01/24 03:55:32;;;;;;;;;;;3.20;99.90;;;;;;5021251;28;19914;-73
2023/01/24 03:57:58;;;;;;;;;;;3.10;99.90;;;;;;5006784;28;19920;-77
2023/01/24 04:00:23;;;;;;;;;;;3.20;99.90;;;;;;5013277;28;19919;-72
2023/01/24 04:02:49;;;;;;;;;;;3.20;99.90;;;;;;5012257;28;19921;-75
2023/01/24 04:05:15;;;;;;;;;;;3.10;99.90;;;;;;5006492;28;19920;-74
2023/01/24 04:07:41;;;;;;;;;;;3.10;99.90;;;;;;5014016;28;20385;-71
2023/01/24 04:10:07;;;;;;;;;;;3.10;99.90;;;;;;5005509;28;19986;-73
2023/01/24 04:12:32;;;;;;;;;;;3.10;99.90;;;;;;5005575;28;20485;-72
2023/01/24 04:14:58;;;;;;;;;;;3.00;99.90;;;;;;5005458;28;19921;-75
2023/01/24 04:17:23;;;;;;;;;;;3.00;99.90;;;;;;5006828;28;20523;-73
2023/01/24 04:19:49;;;;;;;;;;;3.00;99.90;;;;;;5009239;28;20635;-71
2023/01/24 04:22:15;;;;;;;;;;;3.10;99.90;;;;;;5009231;28;19925;-73
2023/01/24 04:24:41;;;;;;;;;;;3.10;99.90;;;;;;5008829;28;19941;-73
2023/01/24 04:27:06;;;;;;;;;;;3.10;99.90;;;;;;5001879;28;19961;-75
2023/01/24 04:29:32;;;;;;;;;;;3.00;99.90;;;;;;5007818;28;19956;-72
2023/01/24 04:31:57;;;;;;;;;;;3.00;99.90;;;;;;5021791;28;19917;-72
2023/01/24 04:34:23;;;;;;;;;;;3.10;99.90;;;;;;5013529;28;19913;-75
2023/01/24 04:36:48;;;;;;;;;;;3.10;99.90;;;;;;5002049;28;19971;-76
2023/01/24 04:39:14;;;;;;;;;;;3.00;99.90;;;;;;5010637;28;20014;-72
2023/01/24 04:41:39;;;;;;;;;;;3.10;99.90;;;;;;5009077;28;19917;-75
2023/01/24 04:44:05;;;;;;;;;;;3.10;99.90;;;;;;5012277;28;20584;-73
2023/01/24 04:46:30;;;;;;;;;;;3.10;99.90;;;;;;5019886;28;19916;-73
2023/01/24 04:48:56;;;;;;;;;;;3.10;99.90;;;;;;5014256;28;19917;-78
2023/01/24 04:51:21;;;;;;;;;;;3.20;99.90;;;;;;5016899;28;19916;-71
2023/01/24 04:53:47;;;;;;;;;;;3.20;99.90;;;;;;5017486;28;19932;-73
2023/01/24 04:56:12;;;;;;;;;;;3.20;99.90;;;;;;5013889;28;20005;-77
2023/01/24 04:58:38;;;;;;;;;;;3.20;99.90;;;;;;5004736;28;19936;-75
2023/01/24 05:01:03;;;;;;;;;;;3.20;99.90;;;;;;5005723;28;19987;-72
2023/01/24 05:03:29;;;;;;;;;;;3.10;99.90;;;;;;5007002;28;19921;-75
2023/01/24 05:05:54;;;;;;;;;;;3.20;99.90;;;;;;5009152;28;19920;-77
2023/01/24 05:08:20;;;;;;;;;;;3.10;99.90;;;;;;5007983;28;19928;-73
2023/01/24 05:10:46;;;;;;;;;;;3.10;99.90;;;;;;5006335;28;19977;-74
2023/01/24 05:13:11;;;;;;;;;;;3.10;99.90;;;;;;5016377;28;19920;-74
2023/01/24 05:15:37;;;;;;;;;;;3.00;99.90;;;;;;5030026;28;19932;-71
2023/01/24 05:18:02;;;;;;;;;;;3.10;99.90;;;;;;5036735;28;19936;-72
2023/01/24 05:20:28;;;;;;;;;;;3.10;99.90;;;;;;5028848;28;19945;-75
2023/01/24 05:22:57;;;;;;;;;;;3.10;99.90;;;;;;5028663;28;19920;-73
2023/01/24 05:25:22;;;;;;;;;;;3.10;99.90;;;;;;5021632;28;20000;-73
2023/01/24 05:27:48;;;;;;;;;;;3.00;99.90;;;;;;5005194;28;19987;-74
2023/01/24 05:30:13;;;;;;;;;;;3.00;99.90;;;;;;5011022;28;19913;-71
2023/01/24 05:32:39;;;;;;;;;;;3.00;99.90;;;;;;5013772;28;20922;-75
2023/01/24 05:35:05;;;;;;;;;;;3.00;99.90;;;;;;5019564;28;19910;-72
2023/01/24 05:37:30;;;;;;;;;;;3.00;99.90;;;;;;5008741;28;20386;-77
2023/01/24 05:39:56;;;;;;;;;;;3.00;99.90;;;;;;5015832;28;20007;-74
2023/01/24 05:42:21;;;;;;;;;;;3.00;99.90;;;;;;5010893;28;19919;-73
2023/01/24 05:44:47;;;;;;;;;;;3.00;99.90;;;;;;5010166;28;19914;-74
2023/01/24 05:47:12;;;;;;;;;;;3.00;99.90;;;;;;5006587;28;19909;-75
2023/01/24 05:49:37;;;;;;;;;;;3.00;99.90;;;;;;5007082;28;19914;-72
2023/01/24 05:52:03;;;;;;;;;;;3.00;99.90;;;;;;5010406;28;19960;-76
2023/01/24 05:54:29;;;;;;;;;;;3.10;99.90;;;;;;5014356;28;20540;-74
2023/01/24 05:56:54;;;;;;;;;;;3.20;99.90;;;;;;5010534;28;19917;-75
2023/01/24 05:59:20;;;;;;;;;;;3.00;99.90;;;;;;5004449;28;19920;-71
2023/01/24 06:01:46;;;;;;;;;;;3.00;99.90;;;;;;5006281;28;20387;-74
2023/01/24 06:04:11;;;;;;;;;;;2.90;99.90;;;;;;5008467;28;19917;-74
2023/01/24 06:06:37;;;;;;;;;;;2.90;99.90;;;;;;5007079;28;20562;-72
2023/01/24 06:09:03;;;;;;;;;;;2.90;99.90;;;;;;5012070;28;20044;-72
2023/01/24 06:11:29;;;;;;;;;;;2.90;99.90;;;;;;5006899;28;19921;-72
2023/01/24 06:13:55;;;;;;;;;;;2.80;99.90;;;;;;5010818;28;19913;-71
2023/01/24 06:16:22;;;;;;;;;;;2.80;99.90;;;;;;5011386;28;19936;-77
2023/01/24 06:18:48;;;;;;;;;;;2.80;99.90;;;;;;5016652;28;19927;-73
2023/01/24 06:21:13;;;;;;;;;;;2.80;99.90;;;;;;5015797;28;19909;-72
2023/01/24 06:23:39;;;;;;;;;;;2.80;99.90;;;;;;5012046;28;19917;-73
2023/01/24 06:26:05;;;;;;;;;;;2.80;99.90;;;;;;5011375;28;19914;-71
2023/01/24 06:28:30;;;;;;;;;;;2.90;99.90;;;;;;5010949;28;19914;-72
2023/01/24 06:31:01;;;;;;;;;;;2.90;99.90;;;;;;5012401;28;19910;-72
2023/01/24 06:33:35;;;;;;;;;;;2.80;99.90;;;;;;5010864;28;19961;-72
2023/01/24 06:36:07;;;;;;;;;;;2.80;99.90;;;;;;5013660;28;19909;-72
2023/01/24 06:38:32;;;;;;;;;;;2.80;99.90;;;;;;5020308;28;20374;-71
2023/01/24 06:41:00;;;;;;;;;;;2.90;99.90;;;;;;5018400;28;19916;-74
2023/01/24 06:43:25;;;;;;;;;;;2.80;99.90;;;;;;5016341;28;20562;-73
2023/01/24 06:45:51;;;;;;;;;;;2.80;99.90;;;;;;5009505;28;19909;-71
2023/01/24 06:48:16;;;;;;;;;;;2.80;99.90;;;;;;5004204;28;19914;-73
2023/01/24 06:50:42;;;;;;;;;;;2.80;99.90;;;;;;5026655;28;20388;-75
2023/01/24 06:53:08;;;;;;;;;;;2.80;99.90;;;;;;5015250;28;19913;-73
2023/01/24 06:55:33;;;;;;;;;;;2.80;99.90;;;;;;5020034;28;19909;-75
2023/01/24 06:58:00;;;;;;;;;;;2.80;99.90;;;;;;5009842;28;19992;-73
2023/01/24 07:00:25;;;;;;;;;;;2.70;99.90;;;;;;5018879;28;19967;-73
2023/01/24 07:03:06;;;;;;;;;;;2.70;99.90;;;;;;5008126;28;19914;-73
2023/01/24 07:05:32;;;;;;;;;;;2.80;99.90;;;;;;5007039;28;19993;-75
2023/01/24 07:07:57;;;;;;;;;;;2.80;99.90;;;;;;4936482;28;1871638;-74
2023/01/24 07:10:23;;;;;;;;;;;2.80;99.90;;;;;;5005686;28;19920;-73
2023/01/24 07:12:48;;;;;;;;;;;2.70;99.90;;;;;;5012425;28;20546;-73
2023/01/24 07:15:14;;;;;;;;;;;2.80;99.90;;;;;;5020968;28;20644;-72
2023/01/24 07:17:40;;;;;;;;;;;2.80;99.90;;;;;;5027057;28;20383;-73
2023/01/24 07:20:06;;;;;;;;;;;2.70;99.90;;;;;;5042848;28;19959;-71
2023/01/24 07:22:31;;;;;;;;;;;2.80;99.90;;;;;;5026010;28;19948;-73
2023/01/24 07:24:57;;;;;;;;;;;2.70;99.90;;;;;;5027747;28;19963;-72
2023/01/24 07:27:23;;;;;;;;;;;2.70;99.90;;;;;;5006399;28;19968;-71
2023/01/24 07:29:48;;;;;;;;;;;2.70;99.90;;;;;;5007167;28;20016;-73
2023/01/24 07:32:14;;;;;;;;;;;2.80;99.90;;;;;;5007867;28;19914;-73
2023/01/24 07:34:39;;;;;;;;;;;2.80;99.90;;;;;;5026513;28;19913;-74
2023/01/24 07:37:07;;;;;;;;;;;2.70;99.90;;;;;;5023076;28;19920;-71
2023/01/24 07:39:33;;;;;;;;;;;2.70;99.90;;;;;;5011952;28;19967;-72
2023/01/24 07:41:58;;;;;;;;;;;2.70;99.90;;;;;;5006034;28;19992;-73
2023/01/24 07:44:24;;;;;;;;;;;2.70;99.90;;;;;;5003977;28;19920;-72
2023/01/24 07:46:49;;;;;;;;;;;2.70;99.90;;;;;;5007956;28;20342;-73
2023/01/24 07:49:15;;;;;;;;;;;2.80;99.90;;;;;;5007671;28;20561;-73
2023/01/24 07:51:40;;;;;;;;;;;2.60;99.90;;;;;;5010664;28;19921;-73
2023/01/24 07:54:06;;;;;;;;;;;2.60;99.90;;;;;;5001842;28;19920;-73
2023/01/24 07:56:31;;;;;;;;;;;2.60;99.90;;;;;;4988014;28;20641;-74
2023/01/24 07:58:57;;;;;;;;;;;2.70;99.90;;;;;;5005953;28;19947;-72
2023/01/24 08:01:23;;;;;;;;;;;2.60;99.90;;;;;;5004733;28;19909;-72
2023/01/24 08:03:49;;;;;;;;;;;2.60;99.90;;;;;;5005629;28;19914;-73
2023/01/24 08:06:15;;;;;;;;;;;2.70;99.90;;;;;;5010706;28;19914;-72
2023/01/24 08:08:40;;;;;;;;;;;2.50;99.90;;;;;;5014423;28;19917;-73
2023/01/24 08:11:06;;;;;;;;;;;2.50;99.90;;;;;;5005628;28;19937;-73
2023/01/24 08:13:31;;;;;;;;;;;2.50;99.90;;;;;;5005772;28;19981;-72
2023/01/24 08:15:58;;;;;;;;;;;2.50;99.90;;;;;;5006208;28;19913;-71
2023/01/24 08:18:24;;;;;;;;;;;2.50;99.90;;;;;;5013293;28;19972;-72
2023/01/24 08:20:53;;;;;;;;;;;2.40;99.90;;;;;;5006334;28;19909;-75
2023/01/24 08:23:18;;;;;;;;;;;2.50;99.90;;;;;;5003374;28;20351;-72
2023/01/24 08:25:44;;;;;;;;;;;2.50;99.90;;;;;;5004182;28;20600;-75
2023/01/24 08:28:09;;;;;;;;;;;2.50;99.90;;;;;;5007918;28;19968;-74
2023/01/24 08:30:35;;;;;;;;;;;2.50;99.90;;;;;;5013549;28;20378;-73
2023/01/24 08:33:04;;;;;;;;;;;2.50;99.90;;;;;;5007107;28;19909;-73
2023/01/24 08:35:30;;;;;;;;;;;2.60;99.90;;;;;;5006107;28;20259;-74
2023/01/24 08:37:55;;;;;;;;;;;2.60;99.90;;;;;;5006019;28;20348;-73
2023/01/24 08:40:21;;;;;;;;;;;2.60;99.90;;;;;;5006744;28;20012;-75
2023/01/24 08:42:46;;;;;;;;;;;2.60;99.90;;;;;;5022451;28;19917;-72
2023/01/24 08:45:12;;;;;;;;;;;2.60;99.90;;;;;;5025135;28;19920;-73
2023/01/24 08:47:37;;;;;;;;;;;2.60;99.90;;;;;;5007293;28;19909;-74
2023/01/24 08:50:03;;;;;;;;;;;2.60;99.90;;;;;;5007704;28;20020;-73
2023/01/24 08:52:28;;;;;;;;;;;2.50;99.90;;;;;;5006981;28;19945;-75
2023/01/24 08:54:54;;;;;;;;;;;2.50;99.90;;;;;;5012439;28;19949;-72
2023/01/24 08:57:19;;;;;;;;;;;2.50;99.90;;;;;;5010884;28;20013;-72
2023/01/24 08:59:45;;;;;;;;;;;2.50;99.90;;;;;;4998599;28;19917;-74
2023/01/24 09:02:14;;;;;;;;;;;2.60;99.90;;;;;;5009771;28;19910;-72
2023/01/24 09:04:42;;;;;;;;;;;2.50;99.90;;;;;;5004222;28;20176;-72
2023/01/24 09:07:07;;;;;;;;;;;2.60;99.90;;;;;;5006742;28;19959;-75
2023/01/24 09:09:33;;;;;;;;;;;2.60;99.90;;;;;;5014524;28;19941;-73
2023/01/24 09:11:58;;;;;;;;;;;2.50;99.90;;;;;;5008440;28;19960;-73
2023/01/24 09:14:24;;;;;;;;;;;2.50;99.90;;;;;;5000365;28;20432;-71
2023/01/24 09:16:49;;;;;;;;;;;2.50;99.90;;;;;;5017911;28;19921;-73
2023/01/24 09:19:15;;;;;;;;;;;2.50;99.90;;;;;;5006656;28;20462;-73
2023/01/24 09:21:40;;;;;;;;;;;2.40;99.90;;;;;;5012533;28;19916;-73
2023/01/24 09:24:06;;;;;;;;;;;2.40;99.90;;;;;;5016670;28;19917;-73
2023/01/24 09:26:31;;;;;;;;;;;2.50;99.90;;;;;;5011249;28;19951;-71
2023/01/24 09:28:57;;;;;;;;;;;2.40;99.90;;;;;;5016877;28;19913;-73
2023/01/24 09:31:23;;;;;;;;;;;2.40;99.90;;;;;;5014036;28;19909;-70
2023/01/24 09:33:48;;;;;;;;;;;2.40;99.90;;;;;;5009564;28;20793;-73
2023/01/24 09:36:14;;;;;;;;;;;2.40;99.90;;;;;;5007752;28;20367;-75
2023/01/24 09:38:39;;;;;;;;;;;2.40;99.90;;;;;;5021530;28;19909;-72
2023/01/24 09:41:05;;;;;;;;;;;2.40;99.90;;;;;;5018629;28;19909;-72
2023/01/24 09:43:49;;;;;;;;;;;2.40;99.90;;;;;;5008682;28;19957;-74
2023/01/24 09:46:17;;;;;;;;;;;2.50;99.90;;;;;;5006787;28;19910;-72
2023/01/24 09:48:43;;;;;;;;;;;2.60;99.90;;;;;;5011244;28;19909;-73
2023/01/24 09:51:21;;;;;;;;;;;2.50;99.90;;;;;;5009785;28;20000;-73
2023/01/24 09:53:50;;;;;;;;;;;2.40;99.90;;;;;;5013746;28;19999;-72
2023/01/24 09:56:26;;;;;;;;;;;2.50;99.90;;;;;;5015938;28;19909;-73
2023/01/24 09:58:57;;;;;;;;;;;2.50;99.90;;;;;;5008256;28;19963;-74
2023/01/24 10:01:23;;;;;;;;;;;2.50;99.90;;;;;;5014638;28;20378;-75
2023/01/24 10:03:48;;;;;;;;;;;2.50;99.90;;;;;;5004579;28;20624;-74
2023/01/24 10:06:21;;;;;;;;;;;2.50;99.90;;;;;;5004801;28;19918;-71
2023/01/24 10:09:03;;;;;;;;;;;2.60;99.90;;;;;;5007623;28;19917;-72
2023/01/24 10:11:47;;;;;;;;;;;2.70;99.90;;;;;;5007240;28;19963;-74
2023/01/24 10:14:20;;;;;;;;;;;2.60;99.90;;;;;;5011822;28;20282;-72
2023/01/24 10:16:54;;;;;;;;;;;2.70;99.90;;;;;;5012588;28;20033;-75
2023/01/24 10:19:41;;;;;;;;;;;2.70;99.90;;;;;;5008377;28;19937;-75
2023/01/24 10:22:09;;;;;;;;;;;2.60;99.90;;;;;;5011377;28;19936;-72
2023/01/24 10:24:37;;;;;;;;;;;2.60;99.90;;;;;;5011423;28;19985;-73
2023/01/24 10:27:13;;;;;;;;;;;2.70;99.90;;;;;;5008953;28;20756;-74
2023/01/24 10:29:38;;;;;;;;;;;2.60;99.90;;;;;;5006577;28;19914;-75
2023/01/24 10:32:19;;;;;;;;;;;2.50;99.90;;;;;;5005304;28;19915;-72
2023/01/24 10:34:46;;;;;;;;;;;2.50;99.90;;;;;;5010672;28;19910;-74
2023/01/24 10:37:19;;;;;;;;;;;2.50;99.90;;;;;;4998486;28;19948;-71
2023/01/24 10:39:44;;;;;;;;;;;2.50;99.90;;;;;;5009997;28;19909;-73
2023/01/24 10:42:19;;;;;;;;;;;2.50;99.90;;;;;;5011036;28;19909;-75
2023/01/24 10:44:45;;;;;;;;;;;2.40;99.90;;;;;;5022674;28;19996;-74
2023/01/24 10:47:29;;;;;;;;;;;2.50;99.90;;;;;;5012993;28;19969;-74
2023/01/24 10:50:04;;;;;;;;;;;2.50;99.90;;;;;;5006738;28;19910;-75
2023/01/24 10:52:31;;;;;;;;;;;2.50;99.90;;;;;;5016693;28;19988;-73
2023/01/24 10:54:58;;;;;;;;;;;2.40;99.90;;;;;;5013706;28;19917;-72
2023/01/24 10:57:29;;;;;;;;;;;2.40;99.90;;;;;;5012514;28;20000;-75
2023/01/24 10:59:55;;;;;;;;;;;2.40;99.90;;;;;;5014513;28;19910;-72
2023/01/24 11:02:23;;;;;;;;;;;2.40;99.90;;;;;;5017165;28;20016;-73
2023/01/24 11:05:03;;;;;;;;;;;2.40;99.90;;;;;;4999217;28;19920;-75
2023/01/24 11:07:30;;;;;;;;;;;2.40;99.90;;;;;;5008182;28;19972;-73
2023/01/24 11:09:58;;;;;;;;;;;2.40;99.90;;;;;;5011067;28;19913;-72
2023/01/24 11:12:24;;;;;;;;;;;2.40;99.90;;;;;;5013858;28;19908;-72
2023/01/24 11:14:49;;;;;;;;;;;2.30;99.90;;;;;;5009384;28;19918;-72
2023/01/24 11:17:30;;;;;;;;;;;2.40;99.90;;;;;;5011763;28;19909;-74
2023/01/24 11:20:01;;;;;;;;;;;2.40;99.90;;;;;;5015782;28;19910;-72
2023/01/24 11:22:34;;;;;;;;;;;2.50;99.90;;;;;;5012762;28;19910;-71
2023/01/24 11:25:00;;;;;;;;;;;2.50;99.90;;;;;;5008985;28;20309;-72
2023/01/24 11:27:26;;;;;;;;;;;2.50;99.90;;;;;;5012852;28;19913;-73
2023/01/24 11:30:06;;;;;;;;;;;2.50;99.90;;;;;;5029349;28;19972;-73
2023/01/24 11:32:51;;;;;;;;;;;2.50;99.90;;;;;;5011174;28;19996;-72
2023/01/24 11:35:16;;;;;;;;;;;2.60;99.90;;;;;;5012103;28;19913;-75
2023/01/24 11:37:42;;;;;;;;;;;2.50;99.90;;;;;;5012433;28;19916;-75
2023/01/24 11:40:07;;;;;;;;;;;2.50;99.90;;;;;;5024415;28;20397;-74
2023/01/24 11:42:52;;;;;;;;;;;2.60;99.90;;;;;;5030218;28;19924;-71
2023/01/24 11:45:37;;;;;;;;;;;2.60;99.90;;;;;;5027630;28;20670;-73
2023/01/24 11:48:06;;;;;;;;;;;2.70;99.90;;;;;;5013667;28;19913;-76
2023/01/24 11:50:40;;;;;;;;;;;2.70;99.90;;;;;;5012752;28;20343;-76
2023/01/24 11:53:44;;;;;;;;;;;2.70;99.90;;;;;;5020806;28;20067;-72
2023/01/24 11:56:18;;;;;;;;;;;2.70;99.90;;;;;;4942884;28;20500;-73
2023/01/24 11:59:11;;;;;;;;;;;2.70;99.90;;;;;;4947981;28;19910;-73
2023/01/24 12:01:50;;;;;;;;;;;2.90;99.90;;;;;;4999079;28;20293;-74
2023/01/24 12:04:21;;;;;;;;;;;3.00;99.90;;;;;;5014259;28;19913;-73
2023/01/24 12:06:52;;;;;;;;;;;3.00;99.90;;;;;;5025446;28;19963;-74
2023/01/24 12:09:20;;;;;;;;;;;3.00;99.90;;;;;;5008871;28;19968;-77
2023/01/24 12:11:50;;;;;;;;;;;2.90;99.90;;;;;;5019316;28;19993;-74
2023/01/24 12:14:35;;;;;;;;;;;2.90;99.90;;;;;;5033810;28;19912;-74
2023/01/24 12:17:00;;;;;;;;;;;2.80;99.90;;;;;;5011027;28;19917;-76
2023/01/24 12:19:26;;;;;;;;;;;2.70;99.90;;;;;;5010565;28;20011;-73
2023/01/24 12:21:54;;;;;;;;;;;2.60;99.90;;;;;;5009481;28;19910;-73
2023/01/24 12:24:31;;;;;;;;;;;2.70;99.90;;;;;;5023548;28;19938;-73
2023/01/24 12:27:00;;;;;;;;;;;2.70;99.90;;;;;;5041295;28;20625;-77
2023/01/24 12:29:33;;;;;;;;;;;2.80;99.90;;;;;;5014570;28;19986;-73
2023/01/24 12:32:08;;;;;;;;;;;2.80;99.90;;;;;;5008884;28;20038;-73
2023/01/24 12:34:51;;;;;;;;;;;2.70;99.90;;;;;;5013817;28;19917;-76
2023/01/24 12:37:25;;;;;;;;;;;2.70;99.90;;;;;;4987227;28;19963;-73
2023/01/24 12:39:59;;;;;;;;;;;2.60;99.90;;;;;;5031085;28;19917;-74
2023/01/24 12:42:44;;;;;;;;;;;2.70;99.90;;;;;;5025037;28;19913;-74
2023/01/24 12:45:24;;;;;;;;;;;2.70;99.90;;;;;;5017844;28;19910;-75
2023/01/24 12:47:53;;;;;;;;;;;2.70;99.90;;;;;;5023970;28;19941;-75
2023/01/24 12:50:21;;;;;;;;;;;2.70;99.90;;;;;;5026631;28;19916;-76
2023/01/24 12:52:50;;;;;;;;;;;2.60;99.90;;;;;;5021218;28;19913;-73
2023/01/24 12:55:24;;;;;;;;;;;2.70;99.90;;;;;;5029747;28;20417;-72
2023/01/24 12:58:12;;;;;;;;;;;2.90;99.90;;;;;;5018365;28;19909;-72
2023/01/24 13:00:46;;;;;;;;;;;2.90;99.90;;;;;;5020504;28;19916;-73
2023/01/24 13:03:23;;;;;;;;;;;2.80;99.90;;;;;;5012456;28;19952;-73
2023/01/24 13:05:59;;;;;;;;;;;2.80;99.90;;;;;;5014358;28;20013;-71
2023/01/24 13:08:37;;;;;;;;;;;2.70;99.90;;;;;;5005491;28;19925;-74
2023/01/24 13:11:18;;;;;;;;;;;2.60;99.90;;;;;;5002076;28;19936;-73
2023/01/24 13:14:04;;;;;;;;;;;2.70;99.90;;;;;;4988154;28;19914;-75
2023/01/24 13:16:52;;;;;;;;;;;2.70;99.90;;;;;;4994559;28;19910;-74
2023/01/24 13:19:36;;;;;;;;;;;2.70;99.90;;;;;;5010379;28;19928;-74
2023/01/24 13:22:01;;;;;;;;;;;2.80;99.90;;;;;;5009751;28;20004;-74
2023/01/24 13:24:48;;;;;;;;;;;2.80;99.90;;;;;;5011841;28;20004;-75
2023/01/24 13:27:21;;;;;;;;;;;2.80;99.90;;;;;;5008377;28;20389;-74
2023/01/24 13:30:02;;;;;;;;;;;2.90;99.90;;;;;;5009577;28;20555;-76
2023/01/24 13:32:29;;;;;;;;;;;2.90;99.90;;;;;;5011907;28;20593;-73
2023/01/24 13:34:56;;;;;;;;;;;2.90;99.90;;;;;;4999401;28;19964;-74
2023/01/24 13:37:26;;;;;;;;;;;2.90;99.90;;;;;;4992084;28;19917;-75
2023/01/24 13:40:01;;;;;;;;;;;2.80;99.90;;;;;;5001706;28;20001;-73
2023/01/24 13:42:34;;;;;;;;;;;2.70;99.90;;;;;;5004064;28;19949;-76
2023/01/24 13:45:20;;;;;;;;;;;2.70;99.90;;;;;;4997235;28;19917;-74
2023/01/24 13:47:45;;;;;;;;;;;2.80;99.90;;;;;;5011050;28;20320;-74
2023/01/24 13:50:13;;;;;;;;;;;3.00;99.90;;;;;;5001079;28;20512;-75
2023/01/24 13:52:39;;;;;;;;;;;2.90;99.90;;;;;;4996347;28;20014;-75
2023/01/24 13:55:05;;;;;;;;;;;2.80;99.90;;;;;;5005451;28;19914;-74
2023/01/24 13:57:32;;;;;;;;;;;2.80;99.90;;;;;;5003213;28;19909;-73
2023/01/24 14:00:17;;;;;;;;;;;2.70;99.90;;;;;;5003499;28;20859;-74
2023/01/24 14:02:48;;;;;;;;;;;2.70;99.90;;;;;;5004298;28;20016;-75
2023/01/24 14:05:32;;;;;;;;;;;2.70;99.90;;;;;;5012324;28;20421;-77
2023/01/24 14:07:58;;;;;;;;;;;2.70;99.90;;;;;;5009511;28;19921;-75
2023/01/24 14:10:31;;;;;;;;;;;2.70;99.90;;;;;;5006255;28;19928;-76
2023/01/24 14:12:57;;;;;;;;;;;2.70;99.90;;;;;;5008055;28;20373;-78
2023/01/24 14:15:49;;;;;;;;;;;2.70;99.90;;;;;;5017773;28;19965;-78
2023/01/24 14:18:33;;;;;;;;;;;2.80;99.90;;;;;;5011725;28;20443;-76
2023/01/24 14:20:58;;;;;;;;;;;2.70;99.90;;;;;;5002864;28;19910;-74
2023/01/24 14:23:26;;;;;;;;;;;2.80;99.90;;;;;;5019829;28;19979;-74
2023/01/24 14:25:53;;;;;;;;;;;2.90;99.90;;;;;;5014147;28;19956;-77
2023/01/24 14:28:24;;;;;;;;;;;2.80;99.90;;;;;;5017284;28;19952;-74
2023/01/24 14:30:53;;;;;;;;;;;2.70;99.90;;;;;;5003738;28;20038;-77
2023/01/24 14:33:42;;;;;;;;;;;2.80;99.90;;;;;;5005141;28;19980;-76
2023/01/24 14:36:27;;;;;;;;;;;2.80;99.90;;;;;;5004945;28;19913;-74
2023/01/24 14:39:11;;;;;;;;;;;2.70;99.90;;;;;;5016342;28;19909;-77
2023/01/24 14:41:39;;;;;;;;;;;2.80;99.90;;;;;;5002182;28;20020;-76
2023/01/24 14:44:14;;;;;;;;;;;3.00;99.90;;;;;;4996916;28;20636;-74
2023/01/24 14:46:40;;;;;;;;;;;3.00;99.90;;;;;;4996111;28;19910;-74
2023/01/24 14:49:12;;;;;;;;;;;2.80;99.90;;;;;;4998986;28;19914;-74
2023/01/24 14:51:42;;;;;;;;;;;2.60;99.90;;;;;;5006830;28;19909;-75
2023/01/24 14:54:18;;;;;;;;;;;2.60;99.90;;;;;;5000261;28;19914;-74
2023/01/24 14:56:44;;;;;;;;;;;2.50;99.90;;;;;;5011155;28;20457;-77
2023/01/24 14:59:11;;;;;;;;;;;2.50;99.90;;;;;;5019411;28;19909;-75
2023/01/24 15:01:36;;;;;;;;;;;2.50;99.90;;;;;;5011059;28;19925;-73
2023/01/24 15:04:04;;;;;;;;;;;2.50;99.90;;;;;;5022539;28;19917;-79
2023/01/24 15:06:30;;;;;;;;;;;2.40;99.90;;;;;;5013657;28;19921;-79
2023/01/24 15:09:00;;;;;;;;;;;2.60;99.90;;;;;;5007896;28;19909;-75
2023/01/24 15:11:33;;;;;;;;;;;2.50;99.90;;;;;;5014433;28;20245;-76
2023/01/24 15:14:03;;;;;;;;;;;2.60;99.90;;;;;;5020916;28;19913;-75
2023/01/24 15:16:32;;;;;;;;;;;2.50;99.90;;;;;;5012308;28;19997;-76
2023/01/24 15:19:18;;;;;;;;;;;2.70;99.90;;;;;;5013078;28;19914;-77